createdAt,value
2019-03-18T00:02:53.725Z,99438.12
2019-03-18T00:07:58.922Z,99446.52
2019-03-18T00:13:04.346Z,99447.11
2019-03-18T00:18:12.019Z,99450.89
2019-03-18T00:23:17.123Z,99448.27
2019-03-18T00:28:23.570Z,99459.41
2019-03-18T00:33:29.182Z,99459.14
2019-03-18T00:38:39.656Z,99476.81
2019-03-18T00:43:47.007Z,99482.18
2019-03-18T00:48:53.486Z,99489.56
2019-03-18T00:53:58.740Z,99486.95
2019-03-18T00:59:07.485Z,99491.47
2019-03-18T01:04:14.194Z,99500.48
2019-03-18T01:09:29.153Z,99512.36
2019-03-18T01:14:36.165Z,99517.36
2019-03-18T01:19:42.968Z,99517.89
2019-03-18T01:24:48.390Z,99511.03
2019-03-18T01:29:55.022Z,99526.84
2019-03-18T01:35:00.384Z,99514.45
2019-03-18T01:40:06.796Z,99513.66
2019-03-18T01:45:11.856Z,99519.73
2019-03-18T01:50:17.061Z,99541.66
2019-03-18T01:55:25.251Z,99535.31
2019-03-18T02:00:30.534Z,99540.89
2019-03-18T02:05:35.602Z,99551.15
2019-03-18T02:10:41.204Z,99552.97
2019-03-18T02:15:53.157Z,99550.34
2019-03-18T02:20:54.648Z,99549.86
2019-03-18T02:26:00.048Z,99553.01
2019-03-18T02:31:06.296Z,99541.42
2019-03-18T02:36:11.920Z,99544.88
2019-03-18T02:41:17.965Z,99554.59
2019-03-18T02:46:24.674Z,99568.53
2019-03-18T02:51:33.265Z,99583.28
2019-03-18T02:56:38.540Z,99586.96
2019-03-18T03:01:46.343Z,99585.89
2019-03-18T03:06:51.613Z,99595.60
2019-03-18T03:11:57.485Z,99601.41
2019-03-18T03:17:02.686Z,99595.88
2019-03-18T03:22:07.861Z,99600.11
2019-03-18T03:27:12.985Z,99609.06
2019-03-18T03:32:18.363Z,99598.54
2019-03-18T03:37:23.359Z,99614.06
2019-03-18T03:42:29.790Z,99628.28
2019-03-18T03:47:36.632Z,99631.44
2019-03-18T03:52:41.637Z,99643.27
2019-03-18T03:57:47.089Z,99644.85
2019-03-18T04:02:53.135Z,99649.58
2019-03-18T04:07:59.197Z,99645.88
2019-03-18T04:13:04.037Z,99645.09
2019-03-18T04:18:09.213Z,99645.88
2019-03-18T04:23:14.974Z,99655.33
2019-03-18T04:28:20.389Z,99653.47
2019-03-18T04:33:29.278Z,99651.33
2019-03-18T04:38:35.546Z,99658.97
2019-03-18T04:43:44.440Z,99657.11
2019-03-18T04:48:53.814Z,99656.27
2019-03-18T04:54:03.416Z,99667.86
2019-03-18T04:59:15.737Z,99659.14
2019-03-18T05:04:25.154Z,99663.59
2019-03-18T05:09:30.300Z,99663.30
2019-03-18T05:14:35.392Z,99655.11
2019-03-18T05:19:41.775Z,99650.38
2019-03-18T05:24:47.806Z,99657.69
2019-03-18T05:29:56.697Z,99664.00
2019-03-18T05:35:01.683Z,99670.38
2019-03-18T05:40:06.920Z,99667.75
2019-03-18T05:45:12.378Z,99673.22
2019-03-18T05:50:23.787Z,99683.23
2019-03-18T05:55:29.567Z,99681.37
2019-03-18T06:00:36.128Z,99680.61
2019-03-18T06:05:42.746Z,99680.31
2019-03-18T06:10:48.032Z,99689.83
2019-03-18T06:15:53.970Z,99691.65
2019-03-18T06:20:59.162Z,99699.06
2019-03-18T06:26:06.178Z,99696.20
2019-03-18T06:31:12.282Z,99710.47
2019-03-18T06:36:18.352Z,99708.36
2019-03-18T06:41:23.572Z,99711.00
2019-03-18T06:46:28.804Z,99723.99
2019-03-18T06:51:33.928Z,99724.34
2019-03-18T06:56:39.546Z,99735.45
2019-03-18T07:01:44.975Z,99735.49
2019-03-18T07:06:49.980Z,99730.59
2019-03-18T07:11:55.315Z,99727.74
2019-03-18T07:17:02.161Z,99729.05
2019-03-18T07:22:07.246Z,99737.47
2019-03-18T07:27:12.428Z,99746.98
2019-03-18T07:32:17.612Z,99754.89
2019-03-18T07:37:23.904Z,99738.83
2019-03-18T07:42:30.389Z,99742.24
2019-03-18T07:47:35.908Z,99752.02
2019-03-18T07:52:41.269Z,99755.70
2019-03-18T07:57:46.284Z,99767.55
2019-03-18T08:02:51.828Z,99767.00
2019-03-18T08:07:57.080Z,99777.84
2019-03-18T08:13:02.068Z,99789.70
2019-03-18T08:18:07.562Z,99791.27
2019-03-18T08:23:12.568Z,99787.05
2019-03-18T08:28:17.620Z,99799.18
2019-03-18T08:33:25.526Z,99792.30
2019-03-18T08:38:30.906Z,99804.20
2019-03-18T08:43:36.202Z,99828.22
2019-03-18T08:48:55.112Z,99829.02
2019-03-18T08:53:50.386Z,99836.70
2019-03-18T08:58:56.094Z,99849.37
2019-03-18T09:04:02.438Z,99859.14
2019-03-18T09:09:12.773Z,99865.75
2019-03-18T09:14:17.808Z,99870.22
2019-03-18T09:19:23.093Z,99873.40
2019-03-18T09:24:28.425Z,99881.83
2019-03-18T09:29:33.539Z,99889.51
2019-03-18T09:34:38.774Z,99896.63
2019-03-18T09:39:48.126Z,99904.27
2019-03-18T09:44:56.204Z,99899.52
2019-03-18T09:50:03.037Z,99900.27
2019-03-18T09:55:08.556Z,99904.78
2019-03-18T10:00:14.321Z,99893.42
2019-03-18T10:05:23.528Z,99900.55
2019-03-18T10:10:30.924Z,99900.25
2019-03-18T10:15:37.523Z,99902.09
2019-03-18T10:20:43.341Z,99920.31
2019-03-18T10:25:48.933Z,99930.82
2019-03-18T10:30:55.619Z,99924.94
2019-03-18T10:36:01.492Z,99939.33
2019-03-18T10:41:08.217Z,99927.30
2019-03-18T10:46:14.825Z,99937.12
2019-03-18T10:51:24.472Z,99945.06
2019-03-18T10:56:33.452Z,99956.30
2019-03-18T11:01:38.965Z,99945.36
2019-03-18T11:06:48.293Z,99943.06
2019-03-18T11:11:57.765Z,99941.63
2019-03-18T11:17:03.028Z,99946.88
2019-03-18T11:22:09.546Z,99933.23
2019-03-18T11:27:16.410Z,99935.80
2019-03-18T11:32:22.362Z,99930.88
2019-03-18T11:37:27.873Z,99943.35
2019-03-18T11:42:34.597Z,99953.67
2019-03-18T11:47:42.283Z,99945.63
2019-03-18T11:52:50.887Z,99951.73
2019-03-18T11:57:57.580Z,99958.80
2019-03-18T12:03:05.095Z,99943.91
2019-03-18T12:08:10.225Z,99977.05
2019-03-18T12:13:21.469Z,99971.50
2019-03-18T12:18:28.530Z,99955.66
2019-03-18T12:23:33.697Z,99946.89
2019-03-18T12:28:39.081Z,99953.80
2019-03-18T12:33:44.233Z,99952.07
2019-03-18T12:38:49.227Z,99960.34
2019-03-18T12:43:54.357Z,99961.75
2019-03-18T12:48:59.818Z,99943.79
2019-03-18T12:54:05.218Z,99960.52
2019-03-18T12:59:10.283Z,99945.67
2019-03-18T13:04:15.438Z,99947.77
2019-03-18T13:09:20.966Z,99951.97
2019-03-18T13:14:26.139Z,99954.03
2019-03-18T13:19:31.290Z,99945.09
2019-03-18T13:24:37.274Z,99952.59
2019-03-18T13:29:44.407Z,99960.52
2019-03-18T13:34:51.545Z,99976.27
2019-03-18T13:39:56.779Z,99974.95
2019-03-18T13:45:02.100Z,99971.88
2019-03-18T13:50:09.155Z,99969.73
2019-03-18T13:55:14.336Z,99967.36
2019-03-18T14:00:31.061Z,99975.01
2019-03-18T14:05:37.388Z,99978.45
2019-03-18T14:10:42.554Z,99986.50
2019-03-18T14:15:48.079Z,99984.59
2019-03-18T14:20:56.743Z,99991.52
2019-03-18T14:26:03.344Z,100000.73
2019-03-18T14:31:10.420Z,100001.98
2019-03-18T14:36:18.362Z,100018.66
2019-03-18T14:41:23.526Z,100012.77
2019-03-18T14:46:29.204Z,100019.87
2019-03-18T14:51:45.379Z,100041.98
2019-03-18T14:56:43.210Z,100072.92
2019-03-18T15:01:48.770Z,100055.00
2019-03-18T15:06:54.973Z,100041.98
2019-03-18T15:12:00.207Z,100035.26
2019-03-18T15:17:05.678Z,100038.33
2019-03-18T15:22:16.193Z,100034.26
2019-03-18T15:27:21.606Z,100058.61
2019-03-18T15:32:26.756Z,100062.28
2019-03-18T15:37:47.195Z,100069.70
2019-03-18T15:42:55.407Z,100067.57
2019-03-18T15:48:02.158Z,100079.05
2019-03-18T15:53:14.326Z,100079.81
2019-03-18T15:58:22.858Z,100084.61
2019-03-18T16:03:42.129Z,100083.28
2019-03-18T16:08:48.196Z,100096.81
2019-03-18T16:13:58.038Z,100096.84
2019-03-18T16:19:05.543Z,100101.63
2019-03-18T16:24:13.710Z,100104.26
2019-03-18T16:29:27.309Z,100112.76
2019-03-18T16:34:33.235Z,100124.91
2019-03-18T16:39:42.964Z,100121.20
2019-03-18T16:44:48.078Z,100138.41
2019-03-18T16:49:53.236Z,100139.99
2019-03-18T16:55:00.870Z,100159.37
2019-03-18T17:00:06.591Z,100159.14
2019-03-18T17:05:12.972Z,100162.89
2019-03-18T17:10:28.651Z,100178.28
2019-03-18T17:15:34.862Z,100191.27
2019-03-18T17:20:40.317Z,100202.43
2019-03-18T17:25:45.503Z,100203.76
2019-03-18T17:30:50.824Z,100213.56
2019-03-18T17:35:57.021Z,100223.08
2019-03-18T17:41:09.350Z,100248.49
2019-03-18T17:46:20.115Z,100254.06
2019-03-18T17:51:25.848Z,100257.48
2019-03-18T17:56:39.965Z,100260.13
2019-03-18T18:01:45.844Z,100262.78
2019-03-18T18:06:53.347Z,100278.66
2019-03-18T18:11:58.662Z,100272.31
2019-03-18T18:17:06.272Z,100288.17
2019-03-18T18:22:12.884Z,100294.54
2019-03-18T18:27:37.571Z,100308.00
2019-03-18T18:32:43.106Z,100307.75
2019-03-18T18:37:50.757Z,100314.57
2019-03-18T18:42:56.881Z,100322.75
2019-03-18T18:48:03.431Z,100329.30
2019-03-18T18:53:09.303Z,100341.17
2019-03-18T18:58:15.459Z,100344.60
2019-03-18T19:03:20.739Z,100358.07
2019-03-18T19:08:26.221Z,100367.01
2019-03-18T19:13:31.623Z,100375.92
2019-03-18T19:18:45.417Z,100378.52
2019-03-18T19:23:50.791Z,100388.02
2019-03-18T19:28:56.011Z,100398.83
2019-03-18T19:34:06.013Z,100404.56
2019-03-18T19:39:12.633Z,100412.14
2019-03-18T19:44:18.713Z,100405.80
2019-03-18T19:49:24.123Z,100412.55
2019-03-18T19:54:30.146Z,100431.80
2019-03-18T19:59:35.431Z,100428.30
2019-03-18T20:04:40.995Z,100438.14
2019-03-18T20:09:46.297Z,100445.23
2019-03-18T20:14:52.000Z,100454.17
2019-03-18T20:19:57.863Z,100463.61
2019-03-18T20:25:03.195Z,100463.00
2019-03-18T20:30:14.622Z,100470.66
2019-03-18T20:35:21.683Z,100480.16
2019-03-18T20:40:40.437Z,100490.19
2019-03-18T20:45:46.073Z,100499.39
2019-03-18T20:50:51.503Z,100501.50
2019-03-18T20:55:58.795Z,100499.03
2019-03-18T21:01:03.980Z,100506.94
2019-03-18T21:06:10.883Z,100513.89
2019-03-18T21:11:16.094Z,100516.97
2019-03-18T21:16:21.818Z,100535.97
2019-03-18T21:21:27.227Z,100540.27
2019-03-18T21:26:32.502Z,100542.37
2019-03-18T21:31:39.187Z,100551.20
2019-03-18T21:36:45.559Z,100550.73
2019-03-18T21:41:52.524Z,100551.20
2019-03-18T21:46:59.139Z,100561.19
2019-03-18T21:52:04.553Z,100570.48
2019-03-18T21:57:11.207Z,100580.00
2019-03-18T22:02:17.588Z,100583.89
2019-03-18T22:07:24.932Z,100578.14
2019-03-18T22:12:31.198Z,100588.52
2019-03-18T22:17:36.415Z,100597.92
2019-03-18T22:22:42.159Z,100603.10
2019-03-18T22:27:47.259Z,100606.65
2019-03-18T22:32:54.752Z,100601.70
2019-03-18T22:38:00.458Z,100608.21
2019-03-18T22:43:07.333Z,100615.59
2019-03-18T22:48:13.090Z,100620.58
2019-03-18T22:53:18.167Z,100619.62
2019-03-18T22:58:23.540Z,100614.27
2019-03-18T23:03:28.813Z,100616.86
2019-03-18T23:08:34.295Z,100616.72
2019-03-18T23:13:39.706Z,100629.06
2019-03-18T23:18:45.201Z,100631.87
2019-03-18T23:23:50.817Z,100638.98
2019-03-18T23:28:55.894Z,100636.52
2019-03-18T23:34:01.579Z,100635.51
2019-03-18T23:39:08.671Z,100646.63
2019-03-18T23:44:13.781Z,100656.08
2019-03-18T23:49:19.052Z,100661.20
2019-03-18T23:54:24.546Z,100659.98
2019-03-18T23:59:29.709Z,100659.50
